createdAt,value
2019-04-14T00:00:27.271Z,22.82
2019-04-14T00:03:12.973Z,23.47
2019-04-14T00:05:42.901Z,22.05
2019-04-14T00:08:10.961Z,22.17
2019-04-14T00:10:38.020Z,23.27
2019-04-14T00:13:04.952Z,22.60
2019-04-14T00:15:39.609Z,22.05
2019-04-14T00:18:03.142Z,22.42
2019-04-14T00:20:30.093Z,21.68
2019-04-14T00:22:57.599Z,22.77
2019-04-14T00:25:24.407Z,22.20
2019-04-14T00:27:52.189Z,22.73
2019-04-14T00:30:20.874Z,22.05
2019-04-14T00:32:53.118Z,22.00
2019-04-14T00:35:34.205Z,20.77
2019-04-14T00:38:04.123Z,21.80
2019-04-14T00:40:33.075Z,22.60
2019-04-14T00:43:19.898Z,21.65
2019-04-14T00:45:53.090Z,22.70
2019-04-14T00:48:20.870Z,20.32
2019-04-14T00:50:47.648Z,18.80
2019-04-14T00:53:14.492Z,21.33
2019-04-14T00:55:42.211Z,20.20
2019-04-14T00:58:10.258Z,22.87
2019-04-14T01:00:37.145Z,22.10
2019-04-14T01:03:04.780Z,21.85
2019-04-14T01:05:33.386Z,22.00
2019-04-14T01:08:00.975Z,21.77
2019-04-14T01:10:27.917Z,22.73
2019-04-14T01:12:54.689Z,22.43
2019-04-14T01:15:22.696Z,21.75
2019-04-14T01:17:50.582Z,23.70
2019-04-14T01:20:18.829Z,22.42
2019-04-14T01:22:46.710Z,22.58
2019-04-14T01:25:14.860Z,22.82
2019-04-14T01:27:42.809Z,20.90
2019-04-14T01:30:11.082Z,22.73
2019-04-14T01:32:39.297Z,22.50
2019-04-14T01:35:07.488Z,22.65
2019-04-14T01:37:35.380Z,21.80
2019-04-14T01:40:03.295Z,21.97
2019-04-14T01:42:31.070Z,21.70
2019-04-14T01:44:59.152Z,21.65
2019-04-14T01:47:27.015Z,21.87
2019-04-14T01:49:53.832Z,22.60
2019-04-14T01:52:26.087Z,20.35
2019-04-14T01:55:04.745Z,21.23
2019-04-14T01:57:33.449Z,20.63
2019-04-14T02:00:03.186Z,21.25
2019-04-14T02:02:30.073Z,22.45
2019-04-14T02:04:57.572Z,21.90
2019-04-14T02:07:25.565Z,22.30
2019-04-14T02:09:53.305Z,22.17
2019-04-14T02:12:21.414Z,22.27
2019-04-14T02:14:49.410Z,22.07
2019-04-14T02:17:17.664Z,22.15
2019-04-14T02:19:45.885Z,22.67
2019-04-14T02:22:13.802Z,22.32
2019-04-14T02:24:41.737Z,22.35
2019-04-14T02:27:09.761Z,23.63
2019-04-14T02:29:36.816Z,22.10
2019-04-14T02:34:59.863Z,21.60
2019-04-14T02:37:43.329Z,23.95
2019-04-14T02:40:20.908Z,22.93
2019-04-14T02:42:34.423Z,21.45
2019-04-14T02:44:51.709Z,22.67
2019-04-14T02:47:44.830Z,22.73
2019-04-14T02:49:50.619Z,21.90
2019-04-14T02:52:25.851Z,22.95
2019-04-14T02:54:51.852Z,23.00
2019-04-14T02:57:17.482Z,22.80
2019-04-14T02:59:45.248Z,22.25
2019-04-14T03:04:42.915Z,21.87
2019-04-14T03:07:18.095Z,22.98
2019-04-14T03:12:28.069Z,23.60
2019-04-14T03:14:43.489Z,23.73
2019-04-14T03:19:44.030Z,25.27
2019-04-14T03:22:12.577Z,23.35
2019-04-14T03:24:42.026Z,23.20
2019-04-14T03:27:45.956Z,23.18
2019-04-14T03:30:33.493Z,22.60
2019-04-14T03:33:48.312Z,23.00
2019-04-14T03:35:35.138Z,23.00
2019-04-14T03:40:10.098Z,22.75
2019-04-14T03:43:01.701Z,23.30
2019-04-14T03:45:04.458Z,23.42
2019-04-14T03:47:31.078Z,23.65
2019-04-14T03:52:37.791Z,24.00
2019-04-14T03:54:52.734Z,23.67
2019-04-14T03:57:06.215Z,24.65
2019-04-14T03:59:33.067Z,22.48
2019-04-14T04:02:00.882Z,23.50
2019-04-14T04:04:27.780Z,21.75
2019-04-14T04:06:55.345Z,22.80
2019-04-14T04:09:24.116Z,24.57
2019-04-14T04:11:51.910Z,23.90
2019-04-14T04:14:18.840Z,23.60
2019-04-14T04:16:53.607Z,23.90
2019-04-14T04:19:31.554Z,23.60
2019-04-14T04:22:19.330Z,24.15
2019-04-14T04:24:52.064Z,22.62
2019-04-14T04:27:20.801Z,23.67
2019-04-14T04:29:55.400Z,23.50
2019-04-14T04:32:40.412Z,23.25
2019-04-14T04:35:10.645Z,24.10
2019-04-14T04:37:39.431Z,24.47
2019-04-14T04:40:11.495Z,24.90
2019-04-14T04:42:39.405Z,24.60
2019-04-14T04:45:06.391Z,24.52
2019-04-14T04:47:33.803Z,23.65
2019-04-14T04:50:00.697Z,23.27
2019-04-14T04:52:28.066Z,22.73
2019-04-14T04:54:55.913Z,23.65
2019-04-14T04:57:22.804Z,25.40
2019-04-14T04:59:49.692Z,24.60
2019-04-14T05:02:17.632Z,23.85
2019-04-14T05:04:44.548Z,25.25
2019-04-14T05:07:12.273Z,24.00
2019-04-14T05:09:57.824Z,25.05
2019-04-14T05:12:26.567Z,24.07
2019-04-14T05:15:01.175Z,24.63
2019-04-14T05:17:38.967Z,25.00
2019-04-14T05:20:05.897Z,24.23
2019-04-14T05:22:33.284Z,26.12
2019-04-14T05:25:01.354Z,25.15
2019-04-14T05:27:28.346Z,24.12
2019-04-14T05:29:55.866Z,23.75
2019-04-14T05:32:23.742Z,25.02
2019-04-14T05:34:52.101Z,23.20
2019-04-14T05:37:20.355Z,23.73
2019-04-14T05:39:48.314Z,23.90
2019-04-14T05:42:20.188Z,25.23
2019-04-14T05:44:44.812Z,24.80
2019-04-14T05:47:11.788Z,25.92
2019-04-14T05:49:44.936Z,24.32
2019-04-14T05:52:07.775Z,25.95
2019-04-14T05:54:36.023Z,26.35
2019-04-14T05:57:04.405Z,26.40
2019-04-14T05:59:32.823Z,32.70
2019-04-14T06:01:59.829Z,26.33
2019-04-14T06:04:26.623Z,26.60
2019-04-14T06:06:53.457Z,25.88
2019-04-14T06:09:20.284Z,25.37
2019-04-14T06:11:47.124Z,27.02
2019-04-14T06:14:13.908Z,25.30
2019-04-14T06:16:40.796Z,25.77
2019-04-14T06:19:07.584Z,25.17
2019-04-14T06:21:34.404Z,26.10
2019-04-14T06:24:01.236Z,25.02
2019-04-14T06:26:28.064Z,24.70
2019-04-14T06:28:54.898Z,24.80
2019-04-14T06:31:40.164Z,26.40
2019-04-14T06:34:20.889Z,26.12
2019-04-14T06:36:52.232Z,24.52
2019-04-14T06:39:29.772Z,26.48
2019-04-14T06:41:56.603Z,26.60
2019-04-14T06:44:23.447Z,25.52
2019-04-14T06:46:50.272Z,27.13
2019-04-14T06:49:17.052Z,26.00
2019-04-14T06:51:43.888Z,26.42
2019-04-14T06:54:10.769Z,26.05
2019-04-14T06:56:37.552Z,25.37
2019-04-14T06:59:04.384Z,25.92
2019-04-14T07:01:31.208Z,26.57
2019-04-14T07:03:58.046Z,26.23
2019-04-14T07:06:24.840Z,25.02
2019-04-14T07:08:51.673Z,25.77
2019-04-14T07:11:18.456Z,26.50
2019-04-14T07:13:47.816Z,26.45
2019-04-14T07:16:13.889Z,26.20
2019-04-14T07:18:41.026Z,25.55
2019-04-14T07:21:07.920Z,24.37
2019-04-14T07:23:34.812Z,26.12
2019-04-14T07:26:01.654Z,26.70
2019-04-14T07:28:28.431Z,25.25
2019-04-14T07:31:12.444Z,25.00
2019-04-14T07:33:41.040Z,24.90
2019-04-14T07:36:18.669Z,25.45
2019-04-14T07:38:47.264Z,24.25
2019-04-14T07:41:21.800Z,25.25
2019-04-14T07:43:59.424Z,23.83
2019-04-14T07:46:30.928Z,25.02
2019-04-14T07:49:15.913Z,24.32
2019-04-14T07:52:01.217Z,25.72
2019-04-14T07:54:32.891Z,25.37
2019-04-14T07:57:10.575Z,25.52
2019-04-14T07:59:57.433Z,24.85
2019-04-14T08:02:31.828Z,23.50
2019-04-14T08:05:03.273Z,26.77
2019-04-14T08:07:30.056Z,24.40
2019-04-14T08:09:56.844Z,25.07
2019-04-14T08:12:23.676Z,24.12
2019-04-14T08:14:50.467Z,25.40
2019-04-14T08:17:17.302Z,24.27
2019-04-14T08:19:44.220Z,25.80
2019-04-14T08:22:11.519Z,24.52
2019-04-14T08:24:38.499Z,24.70
2019-04-14T08:27:05.418Z,25.25
2019-04-14T08:29:32.262Z,25.90
2019-04-14T08:31:59.112Z,24.98
2019-04-14T08:34:26.016Z,24.63
2019-04-14T08:36:52.959Z,24.60
2019-04-14T08:39:20.015Z,24.77
2019-04-14T08:41:51.355Z,22.77
2019-04-14T08:44:32.260Z,23.92
2019-04-14T08:47:01.015Z,23.65
2019-04-14T08:49:32.358Z,23.60
2019-04-14T08:52:01.043Z,23.60
2019-04-14T08:54:42.324Z,23.63
2019-04-14T08:57:19.917Z,24.70
2019-04-14T08:59:54.644Z,23.80
2019-04-14T09:02:28.142Z,23.55
2019-04-14T09:05:02.766Z,22.90
2019-04-14T09:07:33.948Z,23.90
2019-04-14T09:10:08.635Z,24.18
2019-04-14T09:12:37.360Z,24.67
2019-04-14T09:15:06.213Z,23.83
2019-04-14T09:17:33.359Z,24.70
2019-04-14T09:20:00.406Z,24.30
2019-04-14T09:22:27.357Z,25.27
2019-04-14T09:24:54.299Z,23.75
2019-04-14T09:27:21.241Z,24.32
2019-04-14T09:29:48.796Z,26.23
2019-04-14T09:32:15.947Z,24.65
2019-04-14T09:34:42.789Z,24.32
2019-04-14T09:37:12.082Z,23.10
2019-04-14T09:39:38.417Z,24.55
2019-04-14T09:42:05.362Z,24.13
2019-04-14T09:44:32.306Z,24.80
2019-04-14T09:46:59.354Z,24.10
2019-04-14T09:49:26.298Z,24.17
2019-04-14T09:51:53.241Z,24.02
2019-04-14T09:54:20.186Z,23.27
2019-04-14T09:56:47.233Z,23.43
2019-04-14T09:59:14.176Z,23.10
2019-04-14T10:01:41.223Z,23.40
2019-04-14T10:04:08.168Z,23.20
2019-04-14T10:06:35.113Z,23.05
2019-04-14T10:09:02.056Z,24.15
2019-04-14T10:11:29.103Z,22.37
2019-04-14T10:13:56.150Z,23.02
2019-04-14T10:16:23.099Z,24.90
2019-04-14T10:18:50.140Z,24.05
2019-04-14T10:21:17.936Z,23.60
2019-04-14T10:23:45.053Z,23.80
2019-04-14T10:26:12.099Z,23.67
2019-04-14T10:28:39.044Z,24.87
2019-04-14T10:31:06.090Z,25.43
2019-04-14T10:33:32.989Z,25.48
2019-04-14T10:35:59.825Z,25.12
2019-04-14T10:38:26.618Z,25.30
2019-04-14T10:40:53.462Z,24.57
2019-04-14T10:43:20.248Z,24.25
2019-04-14T10:45:47.034Z,25.20
2019-04-14T10:48:13.869Z,25.10
2019-04-14T10:50:40.653Z,24.05
2019-04-14T10:53:07.492Z,23.52
2019-04-14T10:55:34.390Z,25.40
2019-04-14T10:58:01.228Z,25.70
2019-04-14T11:00:28.004Z,24.87
2019-04-14T11:02:54.842Z,25.05
2019-04-14T11:05:22.271Z,24.87
2019-04-14T11:07:49.053Z,24.52
2019-04-14T11:10:15.888Z,23.57
2019-04-14T11:12:42.717Z,22.52
2019-04-14T11:15:09.997Z,23.70
2019-04-14T11:17:36.833Z,23.83
2019-04-14T11:20:06.133Z,24.37
2019-04-14T11:22:32.956Z,23.32
2019-04-14T11:24:59.745Z,22.87
2019-04-14T11:27:26.585Z,24.37
2019-04-14T11:29:54.140Z,23.12
2019-04-14T11:32:39.908Z,23.70
2019-04-14T11:35:11.341Z,23.38
2019-04-14T11:37:57.095Z,23.62
2019-04-14T11:40:25.728Z,22.13
2019-04-14T11:42:52.909Z,22.50
2019-04-14T11:45:20.281Z,20.97
2019-04-14T11:47:47.340Z,21.52
2019-04-14T11:50:14.398Z,21.70
2019-04-14T11:52:41.337Z,21.20
2019-04-14T11:55:08.275Z,20.80
2019-04-14T11:57:35.226Z,21.73
2019-04-14T12:00:23.258Z,21.87
2019-04-14T12:03:08.429Z,21.63
2019-04-14T12:05:53.697Z,21.15
2019-04-14T12:08:31.504Z,21.15
2019-04-14T12:10:58.446Z,20.88
2019-04-14T12:13:25.493Z,21.02
2019-04-14T12:15:52.437Z,21.35
2019-04-14T12:18:19.483Z,21.60
2019-04-14T12:20:46.530Z,21.30
2019-04-14T12:23:15.951Z,22.48
2019-04-14T12:25:42.369Z,21.55
2019-04-14T12:28:09.417Z,21.90
2019-04-14T12:30:37.723Z,21.10
2019-04-14T12:33:05.045Z,21.73
2019-04-14T12:35:31.883Z,21.43
2019-04-14T12:37:59.137Z,21.23
2019-04-14T12:40:26.077Z,21.73
2019-04-14T12:43:11.761Z,22.20
2019-04-14T12:45:58.673Z,22.73
2019-04-14T12:48:33.427Z,21.25
2019-04-14T12:51:04.694Z,22.77
2019-04-14T12:53:31.691Z,22.40
2019-04-14T12:55:58.662Z,21.95
2019-04-14T12:58:29.984Z,22.30
2019-04-14T13:00:58.975Z,22.62
2019-04-14T13:03:26.027Z,22.42
2019-04-14T13:05:53.094Z,23.57
2019-04-14T13:08:20.013Z,22.62
2019-04-14T13:10:47.060Z,23.40
2019-04-14T13:13:14.108Z,22.32
2019-04-14T13:15:41.154Z,21.97
2019-04-14T13:18:08.200Z,21.87
2019-04-14T13:20:35.246Z,20.77
2019-04-14T13:23:02.190Z,21.40
2019-04-14T13:25:29.237Z,22.25
2019-04-14T13:27:56.283Z,21.20
2019-04-14T13:30:30.806Z,21.90
2019-04-14T13:32:57.760Z,22.40
2019-04-14T13:35:24.796Z,21.70
2019-04-14T13:37:51.742Z,21.68
2019-04-14T13:40:18.789Z,21.20
2019-04-14T13:42:45.736Z,21.40
2019-04-14T13:45:12.881Z,22.17
2019-04-14T13:47:39.824Z,21.73
2019-04-14T13:50:06.973Z,20.87
2019-04-14T13:52:45.761Z,21.70
2019-04-14T13:55:04.549Z,21.10
2019-04-14T13:57:31.598Z,20.30
2019-04-14T13:59:58.541Z,21.25
2019-04-14T14:02:25.484Z,20.85
2019-04-14T14:04:52.429Z,20.48
2019-04-14T14:07:21.217Z,20.97
2019-04-14T14:09:48.775Z,21.70
2019-04-14T14:12:32.717Z,20.55
2019-04-14T14:15:01.506Z,22.00
2019-04-14T14:17:33.262Z,21.40
2019-04-14T14:20:05.123Z,20.60
2019-04-14T14:22:33.913Z,21.12
2019-04-14T14:25:02.594Z,21.68
2019-04-14T14:27:29.538Z,20.43
2019-04-14T14:29:56.585Z,21.30
2019-04-14T14:32:25.372Z,21.60
2019-04-14T14:34:52.419Z,20.80
2019-04-14T14:37:19.594Z,20.68
2019-04-14T14:39:46.614Z,20.80
2019-04-14T14:42:13.558Z,22.70
2019-04-14T14:44:59.243Z,20.17
2019-04-14T14:47:27.864Z,20.23
2019-04-14T14:50:02.313Z,21.00
2019-04-14T14:52:29.954Z,21.13
2019-04-14T14:54:56.784Z,19.63
2019-04-14T14:57:23.613Z,20.30
2019-04-14T14:59:50.456Z,19.85
2019-04-14T15:02:17.244Z,21.17
2019-04-14T15:04:44.097Z,20.60
2019-04-14T15:07:10.872Z,20.97
2019-04-14T15:09:37.657Z,20.72
2019-04-14T15:12:04.492Z,19.35
2019-04-14T15:14:31.273Z,20.57
2019-04-14T15:16:58.118Z,20.55
2019-04-14T15:19:24.897Z,20.03
2019-04-14T15:21:51.732Z,19.70
2019-04-14T15:24:18.644Z,19.55
2019-04-14T15:26:45.691Z,21.02
2019-04-14T15:29:12.635Z,20.20
2019-04-14T15:31:39.579Z,20.08
2019-04-14T15:34:06.523Z,20.12
2019-04-14T15:36:33.784Z,19.77
2019-04-14T15:39:00.825Z,20.08
2019-04-14T15:41:27.887Z,18.90
2019-04-14T15:43:55.031Z,18.85
2019-04-14T15:46:22.185Z,19.70
2019-04-14T15:48:49.230Z,19.48
2019-04-14T15:51:16.383Z,19.50
2019-04-14T15:53:43.419Z,19.50
2019-04-14T15:56:12.327Z,19.40
2019-04-14T15:58:41.205Z,18.80
2019-04-14T16:01:27.079Z,21.40
2019-04-14T16:04:14.332Z,21.75
2019-04-14T16:06:45.792Z,21.75
2019-04-14T16:09:23.475Z,22.87
2019-04-14T16:11:54.984Z,22.55
2019-04-14T16:14:40.680Z,23.32
2019-04-14T16:17:18.064Z,22.90
2019-04-14T16:19:46.854Z,23.98
2019-04-14T16:22:13.901Z,22.62
2019-04-14T16:24:40.845Z,22.62
2019-04-14T16:27:18.951Z,20.85
2019-04-14T16:29:50.516Z,23.55
2019-04-14T16:32:21.948Z,22.15
2019-04-14T16:34:56.685Z,21.47
2019-04-14T16:37:23.727Z,21.90
2019-04-14T16:39:50.671Z,23.35
2019-04-14T16:42:17.615Z,22.27
2019-04-14T16:44:44.560Z,22.27
2019-04-14T16:47:11.606Z,22.77
2019-04-14T16:49:38.561Z,21.75
2019-04-14T16:52:10.423Z,26.17
2019-04-14T16:54:54.660Z,26.95
2019-04-14T16:57:38.397Z,26.33
2019-04-14T17:00:07.594Z,22.17
2019-04-14T17:02:34.650Z,21.05
2019-04-14T17:05:01.792Z,20.70
2019-04-14T17:07:28.836Z,22.52
2019-04-14T17:09:55.781Z,22.35
2019-04-14T17:12:22.726Z,19.70
2019-04-14T17:14:51.513Z,19.67
2019-04-14T17:17:20.301Z,21.80
2019-04-14T17:19:57.204Z,19.37
2019-04-14T17:22:28.527Z,19.23
2019-04-14T17:25:02.947Z,21.60
2019-04-14T17:27:46.716Z,19.82
2019-04-14T17:30:30.530Z,20.65
2019-04-14T17:33:04.976Z,21.15
2019-04-14T17:35:39.567Z,19.52
2019-04-14T17:38:22.865Z,22.10
2019-04-14T17:40:51.606Z,19.87
2019-04-14T17:43:23.119Z,19.77
2019-04-14T17:45:54.796Z,19.60
2019-04-14T17:48:23.577Z,19.23
2019-04-14T17:50:58.527Z,19.57
2019-04-14T17:53:42.477Z,18.30
2019-04-14T17:56:17.179Z,19.57
2019-04-14T17:58:45.865Z,21.70
2019-04-14T18:01:14.630Z,20.30
2019-04-14T18:03:43.341Z,20.85
2019-04-14T18:06:11.980Z,20.75
2019-04-14T18:08:57.088Z,20.90
2019-04-14T18:11:25.716Z,22.22
2019-04-14T18:13:54.389Z,22.65
2019-04-14T18:16:22.976Z,21.10
2019-04-14T18:19:10.135Z,19.60
2019-04-14T18:21:36.926Z,20.12
2019-04-14T18:24:03.824Z,19.95
2019-04-14T18:26:30.729Z,20.37
2019-04-14T18:29:15.589Z,19.42
2019-04-14T18:31:47.197Z,20.65
2019-04-14T18:34:23.736Z,20.95
2019-04-14T18:36:52.372Z,19.77
2019-04-14T18:39:26.569Z,19.45
2019-04-14T18:42:04.081Z,21.42
2019-04-14T18:44:48.984Z,21.62
2019-04-14T18:47:20.423Z,21.00
2019-04-14T18:49:49.444Z,21.52
2019-04-14T18:52:20.814Z,22.70
2019-04-14T18:54:54.593Z,22.58
2019-04-14T18:57:19.973Z,21.10
2019-04-14T18:59:54.674Z,20.65
2019-04-14T19:02:23.945Z,21.10
2019-04-14T19:04:51.174Z,19.60
2019-04-14T19:07:17.965Z,20.85
2019-04-14T19:09:44.812Z,21.90
2019-04-14T19:12:19.260Z,25.80
2019-04-14T19:14:46.140Z,38.63
2019-04-14T19:17:17.149Z,41.33
2019-04-14T19:20:01.478Z,38.83
2019-04-14T19:22:24.185Z,30.10
2019-04-14T19:24:51.333Z,36.15
2019-04-14T19:27:20.112Z,34.33
2019-04-14T19:29:48.005Z,29.75
2019-04-14T19:32:14.931Z,25.35
2019-04-14T19:34:41.979Z,21.62
2019-04-14T19:37:08.851Z,21.40
2019-04-14T19:39:35.801Z,19.95
2019-04-14T19:42:02.708Z,23.07
2019-04-14T19:44:30.266Z,25.25
2019-04-14T19:46:57.212Z,25.68
2019-04-14T19:49:24.155Z,23.90
2019-04-14T19:51:52.157Z,19.95
2019-04-14T19:54:19.170Z,19.05
2019-04-14T19:56:46.114Z,18.62
2019-04-14T19:59:13.161Z,19.85
2019-04-14T20:01:41.129Z,20.47
2019-04-14T20:04:08.175Z,21.90
2019-04-14T20:06:35.121Z,27.15
2019-04-14T20:09:02.065Z,23.38
2019-04-14T20:11:29.110Z,21.15
2019-04-14T20:13:56.159Z,20.70
2019-04-14T20:16:41.738Z,21.70
2019-04-14T20:19:22.918Z,23.80
2019-04-14T20:22:08.472Z,22.52
2019-04-14T20:24:49.163Z,22.62
2019-04-14T20:27:17.832Z,24.23
2019-04-14T20:29:52.105Z,24.20
2019-04-14T20:32:20.850Z,23.07
2019-04-14T20:34:47.794Z,23.75
2019-04-14T20:37:14.945Z,23.80
2019-04-14T20:39:41.989Z,22.87
2019-04-14T20:42:08.934Z,22.40
2019-04-14T20:44:35.982Z,22.98
2019-04-14T20:47:03.641Z,23.70
2019-04-14T20:49:32.430Z,23.30
2019-04-14T20:51:59.374Z,22.50
2019-04-14T20:54:26.323Z,21.97
2019-04-14T20:56:53.262Z,22.25
2019-04-14T20:59:20.206Z,22.13
2019-04-14T21:01:48.998Z,21.60
2019-04-14T21:04:17.780Z,22.10
2019-04-14T21:07:01.622Z,23.70
2019-04-14T21:09:36.758Z,22.93
2019-04-14T21:12:20.598Z,24.32
2019-04-14T21:15:06.179Z,22.95
2019-04-14T21:17:37.413Z,24.20
2019-04-14T21:20:21.580Z,24.80
2019-04-14T21:22:56.024Z,24.75
2019-04-14T21:25:27.651Z,23.70
2019-04-14T21:28:12.831Z,24.75
2019-04-14T21:30:53.396Z,24.80
2019-04-14T21:33:28.342Z,24.77
2019-04-14T21:36:09.371Z,26.60
2019-04-14T21:38:50.116Z,26.30
2019-04-14T21:41:24.697Z,26.93
2019-04-14T21:43:51.573Z,24.80
2019-04-14T21:46:18.401Z,26.37
2019-04-14T21:48:45.236Z,26.23
2019-04-14T21:51:12.139Z,25.75
2019-04-14T21:53:38.958Z,27.00
2019-04-14T21:56:13.275Z,27.40
2019-04-14T21:58:36.353Z,27.40
2019-04-14T22:01:37.803Z,27.93
2019-04-14T22:04:09.120Z,27.75
2019-04-14T22:06:54.216Z,28.27
2019-04-14T22:09:25.816Z,28.38
2019-04-14T22:11:52.604Z,28.07
2019-04-14T22:14:19.381Z,29.60
2019-04-14T22:16:46.216Z,28.85
2019-04-14T22:19:12.996Z,29.52
2019-04-14T22:21:39.786Z,29.87
2019-04-14T22:24:06.621Z,27.45
2019-04-14T22:26:33.451Z,30.12
2019-04-14T22:29:02.358Z,29.40
2019-04-14T22:31:28.869Z,30.65
2019-04-14T22:33:56.104Z,30.00
2019-04-14T22:36:22.885Z,29.80
2019-04-14T22:38:49.712Z,30.00
2019-04-14T22:41:16.505Z,31.05
2019-04-14T22:43:43.340Z,30.17
2019-04-14T22:46:29.869Z,30.45
2019-04-14T22:48:56.696Z,30.45
2019-04-14T22:51:23.528Z,32.00
2019-04-14T22:53:50.309Z,31.57
2019-04-14T22:56:17.136Z,32.83
2019-04-14T22:58:43.912Z,31.50
2019-04-14T23:01:12.588Z,29.90
2019-04-14T23:03:41.181Z,29.85
2019-04-14T23:06:09.828Z,28.20
2019-04-14T23:08:43.996Z,29.02
2019-04-14T23:11:29.210Z,29.57
2019-04-14T23:13:57.852Z,28.00
2019-04-14T23:16:35.276Z,27.65
2019-04-14T23:19:03.925Z,29.60
2019-04-14T23:21:32.501Z,30.45
2019-04-14T23:24:01.148Z,29.72
2019-04-14T23:26:27.924Z,29.10
2019-04-14T23:28:54.865Z,29.15
2019-04-14T23:31:21.912Z,28.93
2019-04-14T23:33:48.856Z,29.02
2019-04-14T23:36:15.904Z,31.25
2019-04-14T23:38:42.780Z,30.45
2019-04-14T23:41:09.792Z,34.05
2019-04-14T23:43:36.735Z,31.87
2019-04-14T23:46:03.801Z,34.38
2019-04-14T23:48:30.727Z,32.40
2019-04-14T23:50:57.776Z,32.38
2019-04-14T23:53:24.719Z,34.37
2019-04-14T23:55:51.663Z,32.13
2019-04-14T23:58:18.606Z,36.28
